Georgetown, Montana
Current Conditions -  °F | °C
As of 12:53 AM on Monday 26 Jan 2015 (Local Time) from KBTM Reporting Station
Clear Clear  
Wind Chill: 28°   Ceiling: Unl
Heat Index: 28°   Visibility: 10mi
Dew Point: 24°   Wind: 0mph
Humidity: 85%   Direction: NA
Pressure: 30.29"   Gusts: NA
Location:  46.0302°N, 113.143°W
Report Text: KBTM 260753Z AUTO 00000KT 10SM CLR M02/M04 A3029 RMK AO2 SLP266 T10221044
Loading
Personal Weather Stations






























Interactive Weather Map New forecast layout! Learn more

10-Day Weather Forecast

Advertisements
Track Severe Weather on mobile